Time;durP1;ratioP1;P1;durP2;ratioP2;P2;SDS_P1;SDS_P2;PMS_P1;PMS_P2;Temp;Humidity;BMP_temperature;BMP_pressure;BME280_temperature;BME280_humidity;BME280_pressure;Samples;Min_cycle;Max_cycle;Signal;HPM_P1;HPM_P2
2022/02/04 00:03:25;;;;;;;1.30;1.20;;;6.60;99.90;;;;;;5055007;28;20285;-78
2022/02/04 00:07:59;;;;;;;1.67;1.40;;;6.60;99.90;;;;;;5055188;28;20259;-78
2022/02/04 00:23:35;;;;;;;1.30;1.20;;;7.00;99.90;;;;;;5054231;28;20201;-78
2022/02/04 00:26:13;;;;;;;1.30;1.20;;;7.00;99.90;;;;;;5052797;28;20181;-78
2022/02/04 00:33:38;;;;;;;1.43;1.20;;;7.10;99.90;;;;;;5060559;28;20216;-78
2022/02/04 00:36:12;;;;;;;1.67;1.43;;;7.10;99.90;;;;;;5053811;28;20173;-78
2022/02/04 00:38:42;;;;;;;1.90;1.27;;;7.10;99.90;;;;;;5053820;28;20192;-78
2022/02/04 00:41:10;;;;;;;1.73;1.40;;;7.10;99.90;;;;;;5052141;28;20198;-78
2022/02/04 00:43:38;;;;;;;1.37;1.20;;;7.20;99.90;;;;;;5053106;28;20204;-78
2022/02/04 00:46:12;;;;;;;1.10;1.00;;;7.10;99.90;;;;;;5056801;28;20202;-78
2022/02/04 00:48:49;;;;;;;1.40;1.30;;;7.30;99.90;;;;;;5057352;28;20184;-78
2022/02/04 00:51:25;;;;;;;1.20;1.10;;;7.40;99.90;;;;;;5059797;28;20146;-79
2022/02/04 00:54:38;;;;;;;0.97;0.97;;;7.30;99.90;;;;;;5059658;28;20154;-78
2022/02/04 01:26:17;;;;;;;0.90;0.90;;;6.80;99.90;;;;;;5057580;28;20184;-78
2022/02/04 01:28:47;;;;;;;1.53;1.10;;;6.80;99.90;;;;;;5056414;28;20190;-78
2022/02/04 01:31:19;;;;;;;1.40;1.20;;;6.70;99.90;;;;;;5056095;28;20174;-78
2022/02/04 01:33:47;;;;;;;0.80;0.80;;;6.70;99.90;;;;;;5056675;28;20181;-78
2022/02/04 01:36:16;;;;;;;1.03;0.97;;;6.70;99.90;;;;;;5055271;28;20174;-78
2022/02/04 01:38:42;;;;;;;1.03;1.03;;;6.80;99.90;;;;;;5055346;28;20198;-78
2022/02/04 01:41:08;;;;;;;1.30;1.20;;;6.80;99.90;;;;;;5056989;28;20170;-78
2022/02/04 01:43:35;;;;;;;1.53;1.07;;;6.80;99.90;;;;;;5056596;28;20701;-78
2022/02/04 01:46:03;;;;;;;1.00;0.90;;;6.80;99.90;;;;;;5055253;28;20182;-77
2022/02/04 01:48:31;;;;;;;1.30;1.20;;;6.80;99.90;;;;;;5056844;28;20188;-77
2022/02/04 01:50:57;;;;;;;1.37;1.27;;;6.80;99.90;;;;;;5055608;28;20181;-78
2022/02/04 01:53:28;;;;;;;1.20;1.10;;;6.70;99.90;;;;;;5055283;28;20255;-78
2022/02/04 01:56:04;;;;;;;1.20;1.10;;;6.70;99.90;;;;;;5056027;28;20157;-78
2022/02/04 01:58:30;;;;;;;1.00;1.00;;;6.60;99.90;;;;;;5055405;28;20721;-78
2022/02/04 02:00:57;;;;;;;1.50;1.30;;;6.50;99.90;;;;;;5056792;28;20177;-78
2022/02/04 02:03:24;;;;;;;1.90;1.30;;;6.50;99.90;;;;;;5057461;28;20225;-78
2022/02/04 02:05:51;;;;;;;1.43;1.33;;;6.50;99.90;;;;;;5055391;28;20724;-78
2022/02/04 02:08:19;;;;;;;1.50;1.40;;;6.50;99.90;;;;;;5056726;28;20261;-78
2022/02/04 02:10:46;;;;;;;5.40;1.17;;;6.40;99.90;;;;;;5056751;28;20245;-78
2022/02/04 02:45:24;;;;;;;2.10;1.90;;;6.00;99.90;;;;;;5055805;28;20442;-78
2022/02/04 02:48:14;;;;;;;1.93;1.70;;;6.00;99.90;;;;;;5054715;28;20450;-78
2022/02/04 02:55:49;;;;;;;2.20;1.70;;;6.00;99.90;;;;;;5056330;28;20520;-78
2022/02/04 02:58:26;;;;;;;2.83;2.27;;;5.90;99.90;;;;;;5055859;28;20212;-78
2022/02/04 03:03:20;;;;;;;2.37;1.97;;;5.80;99.90;;;;;;5061320;28;20205;-78
2022/02/04 03:05:45;;;;;;;2.50;2.20;;;5.70;99.90;;;;;;5053894;28;20269;-78
2022/02/04 03:08:11;;;;;;;2.23;2.03;;;5.60;99.90;;;;;;5054832;28;20457;-78
2022/02/04 03:10:37;;;;;;;2.67;2.30;;;5.50;99.90;;;;;;5055682;28;20181;-78
2022/02/04 03:13:06;;;;;;;2.20;2.00;;;5.40;99.90;;;;;;5053901;28;20188;-78
2022/02/04 03:15:32;;;;;;;3.13;2.33;;;5.30;99.90;;;;;;5053629;28;20182;-78
2022/02/04 03:18:02;;;;;;;3.43;2.50;;;5.30;99.90;;;;;;5053336;28;20247;-78
2022/02/04 03:20:29;;;;;;;2.77;2.57;;;5.20;99.90;;;;;;5053115;28;20189;-79
2022/02/04 03:22:58;;;;;;;3.90;2.50;;;5.10;99.90;;;;;;5055005;28;20197;-80
2022/02/04 03:25:25;;;;;;;2.77;2.50;;;5.00;99.90;;;;;;5055038;28;20177;-78
2022/02/04 03:27:55;;;;;;;2.33;2.13;;;4.90;99.90;;;;;;5053671;28;20194;-78
2022/02/04 03:30:34;;;;;;;3.03;2.60;;;4.90;99.90;;;;;;5053301;28;20546;-78
2022/02/04 03:33:04;;;;;;;5.17;2.63;;;4.80;99.90;;;;;;5054167;28;20169;-78
2022/02/04 03:35:31;;;;;;;3.00;2.53;;;4.80;99.90;;;;;;5057020;28;20203;-78
2022/02/04 03:37:57;;;;;;;5.93;2.40;;;4.70;99.90;;;;;;5054571;28;20225;-78
2022/02/04 03:40:23;;;;;;;3.20;2.70;;;4.60;99.90;;;;;;5052599;28;20185;-78
2022/02/04 03:42:53;;;;;;;3.30;3.00;;;4.60;99.90;;;;;;5052321;28;20655;-78
2022/02/04 03:45:20;;;;;;;3.40;2.97;;;4.50;99.90;;;;;;5053248;28;20418;-78
2022/02/04 03:47:46;;;;;;;3.73;3.07;;;4.50;99.90;;;;;;5053190;28;20217;-78
2022/02/04 03:50:12;;;;;;;3.77;2.93;;;4.40;99.90;;;;;;5052286;28;20643;-78
2022/02/04 03:52:38;;;;;;;5.17;3.93;;;4.40;99.90;;;;;;5052555;28;20556;-78
2022/02/04 03:55:05;;;;;;;4.37;3.70;;;4.40;99.90;;;;;;5053971;28;20640;-78
2022/02/04 03:57:31;;;;;;;5.47;4.17;;;4.40;99.90;;;;;;5053440;28;20197;-78
2022/02/04 03:59:57;;;;;;;4.83;3.73;;;;;;;;;;5052696;28;20322;-78
2022/02/04 04:02:22;;;;;;;4.50;3.57;;;4.30;99.90;;;;;;5053660;28;20212;-78
2022/02/04 04:04:49;;;;;;;4.10;3.27;;;;;;;;;;5052332;28;20415;-78
2022/02/04 04:07:15;;;;;;;5.10;3.83;;;;;;;;;;5052395;28;20204;-78
2022/02/04 04:09:48;;;;;;;4.93;4.43;;;;;;;;;;5054103;28;20439;-78
2022/02/04 04:12:13;;;;;;;6.63;3.70;;;4.20;99.90;;;;;;5055631;28;20408;-78
2022/02/04 04:14:39;;;;;;;5.17;4.17;;;4.20;99.90;;;;;;5059167;28;20174;-78
2022/02/04 04:17:05;;;;;;;6.00;4.60;;;4.10;99.90;;;;;;5056610;28;20631;-78
2022/02/04 04:19:30;;;;;;;5.23;4.20;;;4.10;99.90;;;;;;5060771;28;20213;-78
2022/02/04 04:21:56;;;;;;;5.87;4.83;;;4.10;99.90;;;;;;5063677;28;20205;-78
2022/02/04 04:24:21;;;;;;;10.17;4.90;;;4.10;99.90;;;;;;5060471;28;20631;-78
2022/02/04 04:26:47;;;;;;;7.20;4.67;;;4.10;99.90;;;;;;5058597;28;20174;-78
2022/02/04 04:29:13;;;;;;;5.33;4.67;;;4.00;99.90;;;;;;5059526;28;20228;-79
2022/02/04 04:31:38;;;;;;;6.90;5.70;;;4.00;99.90;;;;;;5059288;28;20513;-79
2022/02/04 04:34:04;;;;;;;8.90;6.57;;;3.90;99.90;;;;;;5058231;28;20516;-78
2022/02/04 04:36:30;;;;;;;8.03;6.33;;;3.90;99.90;;;;;;5059647;28;20681;-79
2022/02/04 04:39:12;;;;;;;8.50;6.50;;;3.80;99.90;;;;;;5057988;28;20201;-79
2022/02/04 05:30:07;;;;;;;15.87;11.63;;;3.70;99.90;;;;;;5056007;28;20392;-78
2022/02/04 05:32:33;;;;;;;15.90;9.33;;;3.60;99.90;;;;;;5057457;28;20185;-78
2022/02/04 05:35:00;;;;;;;15.20;11.73;;;3.60;99.90;;;;;;5055369;28;20461;-79
2022/02/04 05:37:26;;;;;;;14.13;10.60;;;3.60;99.90;;;;;;5057093;28;20832;-79
2022/02/04 05:39:56;;;;;;;15.23;11.73;;;3.60;99.90;;;;;;5056548;28;20416;-79
2022/02/04 05:42:34;;;;;;;17.17;11.43;;;3.60;99.90;;;;;;5057273;28;20967;-80
2022/02/04 05:45:16;;;;;;;18.30;12.53;;;3.60;99.90;;;;;;5055255;28;20197;-78
2022/02/04 05:47:42;;;;;;;17.17;11.13;;;3.50;99.90;;;;;;5056464;28;20190;-78
2022/02/04 05:50:15;;;;;;;16.93;11.73;;;3.60;99.90;;;;;;5056410;28;20219;-79
2022/02/04 06:03:33;;;;;;;17.10;11.60;;;3.60;99.90;;;;;;5065248;28;20443;-78
2022/02/04 06:11:41;;;;;;;15.27;12.07;;;3.60;99.90;;;;;;5057485;28;20249;-78
2022/02/04 06:22:27;;;;;;;14.10;10.53;;;3.60;99.90;;;;;;5060092;28;20224;-78
2022/02/04 06:24:55;;;;;;;15.53;11.73;;;3.60;99.90;;;;;;5056701;28;20177;-78
2022/02/04 06:27:24;;;;;;;16.87;10.70;;;3.50;99.90;;;;;;5055358;28;20197;-78
2022/02/04 06:29:52;;;;;;;16.20;11.53;;;3.60;99.90;;;;;;5054100;28;20475;-78
2022/02/04 06:32:19;;;;;;;16.07;12.50;;;3.60;99.90;;;;;;5054435;28;20244;-79
2022/02/04 06:34:46;;;;;;;17.20;12.40;;;3.60;99.90;;;;;;5055159;28;20423;-78
2022/02/04 06:37:12;;;;;;;17.03;13.27;;;3.60;99.90;;;;;;5055257;28;20610;-79
2022/02/04 06:39:38;;;;;;;15.47;11.63;;;3.50;99.90;;;;;;5054301;28;20448;-79
2022/02/04 06:42:04;;;;;;;16.03;10.93;;;3.60;99.90;;;;;;5054254;28;20999;-79
2022/02/04 06:44:30;;;;;;;17.67;11.00;;;3.60;99.90;;;;;;5053608;28;20174;-79
2022/02/04 06:46:56;;;;;;;12.43;9.37;;;3.50;99.90;;;;;;5054527;28;20483;-79
2022/02/04 06:49:22;;;;;;;15.83;12.00;;;;;;;;;;5053367;28;20608;-79
2022/02/04 06:51:48;;;;;;;19.50;13.63;;;3.60;99.90;;;;;;5055498;28;20220;-79
2022/02/04 06:54:14;;;;;;;16.50;11.77;;;;;;;;;;5057388;28;20807;-79
2022/02/04 06:56:39;;;;;;;16.77;14.23;;;3.60;99.90;;;;;;5056457;28;20181;-79
2022/02/04 06:59:05;;;;;;;15.63;10.43;;;3.60;99.90;;;;;;5056476;28;20440;-79
2022/02/04 07:01:32;;;;;;;15.83;11.27;;;3.60;99.90;;;;;;5057861;28;20277;-80
2022/02/04 07:04:03;;;;;;;13.60;9.80;;;3.70;99.90;;;;;;5054808;28;20651;-79
2022/02/04 07:06:31;;;;;;;13.77;10.40;;;3.70;99.90;;;;;;5059932;28;20373;-80
2022/02/04 07:12:27;;;;;;;16.90;11.00;;;3.70;99.90;;;;;;5059922;28;20395;-80
2022/02/04 07:14:50;;;;;;;13.90;10.67;;;3.70;99.90;;;;;;5061032;28;20405;-80
2022/02/04 07:19:46;;;;;;;12.80;10.00;;;3.70;99.90;;;;;;5058190;28;20408;-79
2022/02/04 07:22:20;;;;;;;11.80;9.50;;;3.70;99.90;;;;;;5057434;28;20190;-79
2022/02/04 07:24:50;;;;;;;13.60;9.10;;;3.70;99.90;;;;;;5058264;28;20427;-79
2022/02/04 07:27:16;;;;;;;13.70;10.50;;;3.70;99.90;;;;;;5058418;28;20466;-79
2022/02/04 07:29:44;;;;;;;14.00;10.27;;;3.70;99.90;;;;;;5057353;28;20743;-79
2022/02/04 07:32:19;;;;;;;13.43;9.40;;;3.70;99.90;;;;;;5058463;28;20416;-79
2022/02/04 07:42:50;;;;;;;23.43;13.07;;;3.80;99.90;;;;;;5059453;28;20447;-79
2022/02/04 07:45:15;;;;;;;20.30;13.10;;;3.80;99.90;;;;;;5058003;28;20413;-79
2022/02/04 07:47:41;;;;;;;21.73;13.20;;;3.80;99.90;;;;;;5057496;28;20212;-79
2022/02/04 07:50:08;;;;;;;35.33;18.87;;;3.80;99.90;;;;;;5058141;28;20200;-79
2022/02/04 07:52:34;;;;;;;20.60;12.93;;;3.80;99.90;;;;;;5063586;28;20236;-79
2022/02/04 07:55:00;;;;;;;21.80;12.83;;;3.90;99.90;;;;;;5067499;28;20443;-79
2022/02/04 07:57:26;;;;;;;18.13;11.50;;;3.90;99.90;;;;;;5067906;28;20189;-79
2022/02/04 07:59:54;;;;;;;16.93;11.30;;;3.90;99.90;;;;;;5059298;28;20181;-79
2022/02/04 08:02:19;;;;;;;19.03;12.43;;;3.90;99.90;;;;;;5056912;28;20237;-79
2022/02/04 08:04:48;;;;;;;18.83;12.60;;;3.90;99.90;;;;;;5057305;28;20436;-79
2022/02/04 08:07:16;;;;;;;26.03;15.40;;;4.00;99.90;;;;;;5057313;28;20208;-79
2022/02/04 08:09:59;;;;;;;20.20;13.27;;;4.00;99.90;;;;;;5057656;28;20419;-78
2022/02/04 08:13:24;;;;;;;21.30;12.80;;;4.00;99.90;;;;;;5055579;28;20169;-79
2022/02/04 08:15:44;;;;;;;15.23;10.67;;;8.30;99.90;;;;;;5055540;28;20567;-79
2022/02/04 08:30:57;;;;;;;15.83;10.90;;;4.00;99.90;;;;;;5057944;28;20487;-79
2022/02/04 08:36:15;;;;;;;15.53;11.90;;;4.10;99.90;;;;;;5056524;28;20189;-79
2022/02/04 08:54:33;;;;;;;12.80;8.73;;;4.20;99.90;;;;;;5057709;28;20253;-80
2022/02/04 11:43:49;;;;;;;12.37;8.10;;;7.50;99.90;;;;;;5075398;28;20161;-81
2022/02/04 11:52:46;;;;;;;9.00;7.03;;;8.10;99.90;;;;;;5085710;28;20226;-79
2022/02/04 11:55:11;;;;;;;8.63;6.80;;;8.60;99.90;;;;;;5079860;28;20207;-80
2022/02/04 11:57:59;;;;;;;8.07;6.93;;;9.20;99.90;;;;;;5074230;28;20193;-80
2022/02/04 12:00:40;;;;;;;8.83;7.47;;;9.90;99.90;;;;;;5075008;28;20165;-80
2022/02/04 12:03:39;;;;;;;8.03;6.93;;;10.50;99.90;;;;;;5073483;28;20165;-80
2022/02/04 12:06:05;;;;;;;7.13;6.40;;;10.60;99.90;;;;;;5072885;28;20173;-80
2022/02/04 12:08:31;;;;;;;11.30;6.73;;;10.80;99.90;;;;;;5073334;28;20193;-81
2022/02/04 12:11:00;;;;;;;7.57;6.77;;;10.70;99.90;;;;;;5072974;28;20209;-80
2022/02/04 12:13:26;;;;;;;8.93;7.20;;;10.50;99.90;;;;;;5073026;28;20173;-81
2022/02/04 12:16:06;;;;;;;8.07;6.47;;;10.20;99.90;;;;;;5073313;28;20165;-80
2022/02/04 12:18:40;;;;;;;14.23;10.10;;;9.80;99.90;;;;;;5072082;28;20686;-81
2022/02/04 12:21:05;;;;;;;20.53;12.90;;;10.20;99.90;;;;;;5071403;28;20173;-80
2022/02/04 12:26:05;;;;;;;15.07;11.47;;;9.50;99.90;;;;;;5060069;28;20192;-80
2022/02/04 12:28:48;;;;;;;8.33;7.20;;;9.80;99.90;;;;;;5059427;28;20584;-80
2022/02/04 12:31:23;;;;;;;8.07;6.83;;;9.70;99.90;;;;;;5059012;28;20558;-80
2022/02/04 12:34:06;;;;;;;7.67;6.73;;;9.30;99.90;;;;;;5058568;28;20185;-80
2022/02/04 12:36:38;;;;;;;8.57;6.77;;;9.30;99.90;;;;;;5058785;28;20166;-80
2022/02/04 12:39:14;;;;;;;14.10;7.80;;;8.90;99.90;;;;;;5060440;28;20204;-80
2022/02/04 12:41:49;;;;;;;10.30;6.83;;;9.60;99.90;;;;;;5057539;28;20177;-81
2022/02/04 12:44:24;;;;;;;8.93;7.23;;;10.30;99.90;;;;;;5057671;28;20603;-81
2022/02/04 12:46:55;;;;;;;7.37;6.13;;;10.20;99.90;;;;;;5057824;28;20189;-81
2022/02/04 12:49:28;;;;;;;8.13;6.10;;;10.70;99.90;;;;;;5054983;28;20162;-80
2022/02/04 12:52:28;;;;;;;8.83;6.87;;;11.60;99.90;;;;;;5054666;28;20213;-81
2022/02/04 12:55:07;;;;;;;7.80;6.80;;;11.80;99.90;;;;;;5054558;28;20173;-81
2022/02/04 12:57:40;;;;;;;9.87;6.27;;;12.10;99.90;;;;;;5055918;28;20197;-81
2022/02/04 13:03:04;;;;;;;9.17;7.50;;;12.50;99.90;;;;;;5058045;28;20169;-81
2022/02/04 13:10:56;;;;;;;8.43;6.87;;;12.40;99.90;;;;;;5058159;28;20220;-81
2022/02/04 13:13:22;;;;;;;7.27;6.10;;;12.00;99.90;;;;;;5059970;28;20161;-81
2022/02/04 13:15:48;;;;;;;7.43;6.63;;;11.30;99.90;;;;;;5059611;28;20292;-81
2022/02/04 13:18:16;;;;;;;8.13;6.30;;;11.90;99.90;;;;;;5057508;28;20202;-80
2022/02/04 13:20:48;;;;;;;7.27;6.13;;;12.20;99.90;;;;;;5058206;28;20186;-80
2022/02/04 13:23:19;;;;;;;6.63;5.60;;;12.20;99.90;;;;;;5057763;28;20213;-80
2022/02/04 13:25:55;;;;;;;7.43;6.20;;;12.30;99.90;;;;;;5058523;28;20161;-81
2022/02/04 13:28:26;;;;;;;14.07;10.73;;;11.90;99.90;;;;;;5061752;28;20193;-80
2022/02/04 13:31:00;;;;;;;18.93;13.37;;;11.90;99.90;;;;;;5058654;28;20196;-80
2022/02/04 13:33:28;;;;;;;8.27;6.73;;;11.60;99.90;;;;;;5058667;28;20155;-80
2022/02/04 13:36:15;;;;;;;8.23;5.93;;;12.50;99.90;;;;;;5057009;28;20183;-80
2022/02/04 13:38:55;;;;;;;7.87;6.00;;;12.50;99.90;;;;;;5057847;28;20189;-80
2022/02/04 13:44:37;;;;;;;6.93;5.60;;;11.80;99.90;;;;;;5057885;28;20174;-80
2022/02/04 13:47:30;;;;;;;7.80;6.17;;;10.30;99.90;;;;;;5056134;28;20171;-80
2022/02/04 13:57:54;;;;;;;8.77;6.17;;;8.70;99.90;;;;;;5059234;28;20284;-79
2022/02/04 14:00:44;;;;;;;10.17;7.53;;;8.70;99.90;;;;;;5056531;28;20173;-79
2022/02/04 14:03:18;;;;;;;10.00;7.07;;;8.70;99.90;;;;;;5056809;28;20672;-80
2022/02/04 14:06:00;;;;;;;8.37;6.80;;;8.70;99.90;;;;;;5056834;28;20180;-80
2022/02/04 14:09:13;;;;;;;8.67;6.80;;;8.60;99.90;;;;;;5057255;28;20717;-80
2022/02/04 14:11:29;;;;;;;9.03;7.00;;;8.60;99.90;;;;;;5059336;28;20249;-80
2022/02/04 14:13:56;;;;;;;9.83;7.37;;;8.50;99.90;;;;;;5055147;28;20204;-80
2022/02/04 14:16:22;;;;;;;9.17;7.00;;;8.50;99.90;;;;;;5056602;28;20182;-80
2022/02/04 14:18:49;;;;;;;9.70;7.20;;;8.40;99.90;;;;;;5056842;28;20220;-80
2022/02/04 14:21:18;;;;;;;9.77;7.50;;;8.20;99.90;;;;;;5055847;28;20191;-80
2022/02/04 14:23:52;;;;;;;7.87;6.60;;;8.10;99.90;;;;;;5055308;28;20184;-79
2022/02/04 14:28:56;;;;;;;8.10;6.17;;;8.00;99.90;;;;;;5056061;28;20220;-79
2022/02/04 15:01:11;;;;;;;7.97;6.13;;;7.20;99.90;;;;;;5058297;28;20196;-79
2022/02/04 15:03:40;;;;;;;7.80;5.30;;;;;;;;;;5058305;28;20240;-80
2022/02/04 15:06:25;;;;;;;9.07;5.90;;;;;;;;;;5058894;28;20177;-79
2022/02/04 15:08:52;;;;;;;11.07;6.20;;;7.20;99.90;;;;;;5057767;28;20198;-79
2022/02/04 15:11:20;;;;;;;7.67;6.23;;;;;;;;;;5056829;28;20731;-79
2022/02/04 15:13:48;;;;;;;7.30;6.17;;;6.80;99.90;;;;;;5057103;28;20265;-79
2022/02/04 15:16:15;;;;;;;7.57;6.20;;;6.90;99.90;;;;;;5059614;28;20170;-79
2022/02/04 15:18:43;;;;;;;8.67;5.83;;;6.80;99.90;;;;;;5057173;28;20251;-80
2022/02/04 15:21:17;;;;;;;7.77;6.30;;;6.80;99.90;;;;;;5058881;28;20176;-80
2022/02/04 15:23:47;;;;;;;9.73;7.60;;;6.80;99.90;;;;;;5058834;28;20213;-80
2022/02/04 15:26:14;;;;;;;11.40;7.87;;;6.70;99.90;;;;;;5059045;28;20186;-79
2022/02/04 15:28:43;;;;;;;8.70;6.50;;;;;;;;;;5059748;28;20205;-80
2022/02/04 15:31:21;;;;;;;8.00;6.33;;;6.60;99.90;;;;;;5062758;28;20221;-79
2022/02/04 15:33:48;;;;;;;9.70;6.43;;;6.60;99.90;;;;;;5060086;28;20657;-80
2022/02/04 15:36:16;;;;;;;7.83;6.00;;;6.70;99.90;;;;;;5057157;28;20175;-79
2022/02/04 15:38:42;;;;;;;8.60;5.83;;;;;;;;;;5060223;28;20199;-80
2022/02/04 15:41:14;;;;;;;7.07;5.60;;;6.30;99.90;;;;;;5058298;28;20280;-79
2022/02/04 15:43:41;;;;;;;9.30;6.13;;;6.40;99.90;;;;;;5056595;28;20179;-80
2022/02/04 15:46:22;;;;;;;9.73;7.87;;;6.10;99.90;;;;;;5057505;28;20206;-79
2022/02/04 15:49:09;;;;;;;10.03;7.97;;;6.10;99.90;;;;;;5056181;28;20201;-79
2022/02/04 16:04:51;;;;;;;20.97;11.73;;;5.50;99.90;;;;;;5058664;28;20159;-79
2022/02/04 16:07:18;;;;;;;22.87;12.53;;;5.90;99.90;;;;;;5056043;28;20386;-79
2022/02/04 16:09:50;;;;;;;32.40;16.73;;;5.60;99.90;;;;;;5056440;28;20302;-79
2022/02/04 16:12:26;;;;;;;28.30;14.47;;;5.50;99.90;;;;;;5056271;28;20219;-80
2022/02/04 16:17:31;;;;;;;37.37;17.40;;;5.40;99.90;;;;;;5061624;28;20256;-79
2022/02/04 16:20:18;;;;;;;78.50;30.87;;;5.30;99.90;;;;;;5061399;28;20637;-79
2022/02/04 16:23:05;;;;;;;13.13;8.73;;;;;;;;;;5061419;28;20167;-79
2022/02/04 16:30:42;;;;;;;13.13;9.23;;;5.10;99.90;;;;;;5044312;28;20648;-79
2022/02/04 16:33:07;;;;;;;12.70;8.63;;;5.10;99.90;;;;;;5051256;28;20191;-79
2022/02/04 16:35:33;;;;;;;12.43;8.57;;;5.10;99.90;;;;;;5054877;28;20239;-79
2022/02/04 16:38:03;;;;;;;9.23;7.00;;;4.90;99.90;;;;;;5060917;28;20195;-79
2022/02/04 16:40:32;;;;;;;13.03;8.30;;;4.90;99.90;;;;;;5049545;28;20182;-79
2022/02/04 16:42:57;;;;;;;16.97;9.07;;;4.80;99.90;;;;;;5041473;28;20203;-80
2022/02/04 16:45:23;;;;;;;25.30;11.80;;;4.90;99.90;;;;;;5046636;28;20176;-79
2022/02/04 16:47:53;;;;;;;35.83;16.07;;;;;;;;;;5045904;28;20225;-79
2022/02/04 16:50:22;;;;;;;25.63;15.10;;;4.60;99.90;;;;;;5054643;28;20183;-79
2022/02/04 16:52:49;;;;;;;11.53;8.43;;;4.60;99.90;;;;;;5043728;28;20203;-79
2022/02/04 16:55:15;;;;;;;10.53;7.50;;;;;;;;;;5038989;28;20188;-79
2022/02/04 16:57:41;;;;;;;17.00;10.03;;;4.60;99.90;;;;;;5058133;28;20195;-78
2022/02/04 17:00:22;;;;;;;11.90;8.03;;;4.60;99.90;;;;;;5051471;28;20179;-78
2022/02/04 17:02:49;;;;;;;12.37;7.33;;;4.60;99.90;;;;;;5036856;28;20191;-78
2022/02/04 17:05:15;;;;;;;10.20;7.50;;;4.70;99.90;;;;;;5038809;28;20198;-78
2022/02/04 17:07:43;;;;;;;11.80;7.93;;;4.40;99.90;;;;;;5050223;28;20202;-78
2022/02/04 17:10:11;;;;;;;10.87;7.30;;;4.60;99.90;;;;;;5046516;28;20180;-79
2022/02/04 17:12:42;;;;;;;11.77;8.30;;;;;;;;;;5049633;28;20293;-79
2022/02/04 17:15:09;;;;;;;9.47;8.07;;;4.50;99.90;;;;;;5037971;28;20236;-79
2022/02/04 17:17:35;;;;;;;11.00;8.17;;;4.40;99.90;;;;;;5038276;28;20210;-79
2022/02/04 17:20:11;;;;;;;9.50;6.93;;;4.30;99.90;;;;;;5049687;28;20659;-79
2022/02/04 17:22:38;;;;;;;12.60;8.37;;;4.50;99.90;;;;;;5040458;28;20231;-79
2022/02/04 17:25:09;;;;;;;6.07;4.23;;;4.30;99.90;;;;;;5040307;28;20790;-78
2022/02/04 17:27:43;;;;;;;11.43;8.23;;;4.60;99.90;;;;;;5039590;28;20205;-79
2022/02/04 17:30:12;;;;;;;11.10;7.00;;;4.20;99.90;;;;;;5036605;28;20777;-78
2022/02/04 17:32:43;;;;;;;8.10;6.23;;;4.30;99.90;;;;;;5052663;28;20202;-78
2022/02/04 17:35:10;;;;;;;6.73;4.77;;;4.30;99.90;;;;;;5041350;28;20680;-79
2022/02/04 17:37:39;;;;;;;7.97;5.37;;;4.50;99.90;;;;;;5042327;28;20439;-78
2022/02/04 17:40:07;;;;;;;5.40;4.50;;;3.80;99.90;;;;;;5050895;28;20188;-79
2022/02/04 17:42:33;;;;;;;11.03;5.40;;;;;;;;;;5052569;28;20674;-78
2022/02/04 17:44:59;;;;;;;9.03;5.03;;;4.40;99.90;;;;;;5046709;28;20409;-79
2022/02/04 17:47:26;;;;;;;6.80;5.07;;;;;;;;;;5044908;28;20203;-79
2022/02/04 17:52:36;;;;;;;4.97;3.67;;;4.20;99.90;;;;;;5044303;28;20559;-78
2022/02/04 17:55:12;;;;;;;3.53;2.80;;;4.10;99.90;;;;;;5051410;28;20182;-79
2022/02/04 17:57:46;;;;;;;4.77;4.03;;;4.30;99.90;;;;;;5047807;28;20466;-78
2022/02/04 18:03:09;;;;;;;2.00;1.80;;;3.90;99.90;;;;;;5041084;28;20178;-79
2022/02/04 18:08:20;;;;;;;2.67;2.47;;;3.70;99.90;;;;;;5040222;28;20943;-79
2022/02/04 18:10:46;;;;;;;3.97;2.73;;;;;;;;;;5039605;28;20182;-78
2022/02/04 18:13:11;;;;;;;3.67;2.77;;;3.80;99.90;;;;;;5037427;28;20186;-79
2022/02/04 18:15:42;;;;;;;9.30;4.03;;;3.80;99.90;;;;;;5037822;28;20170;-79
2022/02/04 18:18:09;;;;;;;3.60;2.30;;;3.80;99.90;;;;;;5035405;28;20198;-78
2022/02/04 18:20:36;;;;;;;3.40;3.03;;;3.80;99.90;;;;;;5036477;28;20965;-79
2022/02/04 18:23:01;;;;;;;3.67;2.17;;;4.00;99.90;;;;;;5038850;28;20505;-80
2022/02/04 18:25:29;;;;;;;3.90;1.93;;;3.70;99.90;;;;;;5039332;28;20448;-79
2022/02/04 18:27:56;;;;;;;2.10;1.90;;;3.60;99.90;;;;;;5037625;28;20201;-80
2022/02/04 18:30:23;;;;;;;3.30;1.80;;;;;;;;;;5041328;28;20193;-78
2022/02/04 18:32:49;;;;;;;2.60;2.03;;;4.00;99.90;;;;;;5041431;28;20549;-79
2022/02/04 18:35:17;;;;;;;2.43;2.23;;;4.00;99.90;;;;;;5041214;28;20241;-80
2022/02/04 18:37:51;;;;;;;2.20;2.00;;;4.10;99.90;;;;;;5039797;28;20228;-80
2022/02/04 18:45:50;;;;;;;1.90;1.77;;;;;;;;;;5037816;28;20987;-79
2022/02/04 18:48:20;;;;;;;2.23;1.47;;;4.40;99.90;;;;;;5038600;28;20425;-77
2022/02/04 18:58:30;;;;;;;1.50;1.40;;;4.30;99.90;;;;;;5034781;28;20205;-77
2022/02/04 19:00:57;;;;;;;1.90;1.67;;;4.50;99.90;;;;;;5041595;28;20431;-78
2022/02/04 19:03:33;;;;;;;1.93;1.33;;;;;;;;;;5054505;28;20190;-78
2022/02/04 19:08:34;;;;;;;1.57;1.47;;;4.40;99.90;;;;;;5051759;28;20197;-78
2022/02/04 19:10:59;;;;;;;1.80;1.70;;;4.20;99.90;;;;;;5046640;28;20257;-79
2022/02/04 19:13:36;;;;;;;3.13;2.00;;;4.30;99.90;;;;;;5048616;28;20200;-79
2022/02/04 19:16:16;;;;;;;1.83;1.73;;;;;;;;;;5056162;28;20176;-79
2022/02/04 19:21:13;;;;;;;2.27;2.07;;;4.00;99.90;;;;;;5057821;28;20769;-79
2022/02/04 19:23:49;;;;;;;2.20;1.70;;;;;;;;;;5057537;28;20165;-78
2022/02/04 19:26:19;;;;;;;2.27;1.97;;;4.00;99.90;;;;;;5069057;28;20204;-78
2022/02/04 19:28:45;;;;;;;4.50;2.70;;;4.20;99.90;;;;;;5076825;28;20484;-78
2022/02/04 19:31:12;;;;;;;4.47;3.50;;;;;;;;;;5074085;28;20538;-77
2022/02/04 19:33:38;;;;;;;8.83;3.60;;;4.20;99.90;;;;;;5075334;28;20263;-77
2022/02/04 19:36:04;;;;;;;4.83;3.37;;;4.30;99.90;;;;;;5077050;28;20507;-78
2022/02/04 19:38:30;;;;;;;5.37;4.03;;;;;;;;;;5078805;28;20247;-78
2022/02/04 19:40:57;;;;;;;3.30;2.40;;;4.40;99.90;;;;;;5065724;28;20439;-78
2022/02/04 19:43:25;;;;;;;3.13;2.80;;;4.40;99.90;;;;;;5058194;28;20465;-78
2022/02/04 19:45:55;;;;;;;4.83;2.87;;;4.50;99.90;;;;;;5056686;28;20185;-78
2022/02/04 19:48:27;;;;;;;3.30;2.47;;;4.40;99.90;;;;;;5057668;28;20190;-78
2022/02/04 19:54:00;;;;;;;2.40;2.20;;;;;;;;;;5059587;28;20160;-78
2022/02/04 20:23:41;;;;;;;4.53;3.47;;;4.90;99.90;;;;;;5039175;28;20278;-80
2022/02/04 20:26:09;;;;;;;4.67;3.93;;;5.00;99.90;;;;;;5053940;28;20519;-77
2022/02/04 20:28:35;;;;;;;4.83;3.43;;;4.90;99.90;;;;;;5063978;28;20300;-79
2022/02/04 20:31:02;;;;;;;5.67;4.10;;;4.90;99.90;;;;;;5082019;28;20176;-79
2022/02/04 20:33:27;;;;;;;5.20;2.87;;;4.80;99.90;;;;;;5063611;28;20178;-79
2022/02/04 20:35:53;;;;;;;4.33;3.47;;;5.00;99.90;;;;;;5059171;28;20173;-79
2022/02/04 20:38:20;;;;;;;5.70;4.13;;;5.10;99.90;;;;;;5060853;28;20198;-79
2022/02/04 20:41:08;;;;;;;2.57;2.30;;;5.10;99.90;;;;;;5046468;28;20185;-79
2022/02/04 20:43:34;;;;;;;4.27;3.70;;;;;;;;;;5043061;28;20427;-79
2022/02/04 20:46:02;;;;;;;3.87;3.50;;;5.00;99.90;;;;;;5041145;28;20224;-79
2022/02/04 20:48:34;;;;;;;6.40;4.47;;;5.00;99.90;;;;;;5052147;28;20189;-79
2022/02/04 20:51:02;;;;;;;4.80;3.60;;;5.20;99.90;;;;;;5066297;28;20419;-79
2022/02/04 20:53:27;;;;;;;4.93;3.23;;;5.20;99.90;;;;;;5067189;28;20422;-79
2022/02/04 20:55:53;;;;;;;6.30;3.80;;;;;;;;;;5063373;28;20508;-79
2022/02/04 20:58:19;;;;;;;5.90;3.87;;;5.10;99.90;;;;;;5063558;28;20212;-81
2022/02/04 21:00:45;;;;;;;3.93;3.43;;;5.10;99.90;;;;;;5063327;28;20166;-79
2022/02/04 21:03:13;;;;;;;5.37;4.27;;;5.10;99.90;;;;;;5062219;28;20182;-80
2022/02/04 21:05:50;;;;;;;3.63;2.70;;;5.10;99.90;;;;;;5062156;28;20189;-79
2022/02/04 21:13:52;;;;;;;5.27;4.37;;;5.00;99.90;;;;;;5059170;28;20435;-79
2022/02/04 21:16:21;;;;;;;5.23;4.50;;;5.00;99.90;;;;;;5057843;28;20181;-79
2022/02/04 21:18:49;;;;;;;3.17;2.87;;;;;;;;;;5062615;28;20193;-79
2022/02/04 21:21:15;;;;;;;5.47;4.20;;;5.10;99.90;;;;;;5059642;28;20260;-80
2022/02/04 21:23:40;;;;;;;4.33;3.47;;;5.10;99.90;;;;;;5042181;28;20186;-79
2022/02/04 21:26:07;;;;;;;5.17;4.30;;;5.20;99.90;;;;;;5049896;28;20252;-79
2022/02/04 21:28:34;;;;;;;5.10;4.30;;;5.10;99.90;;;;;;5053124;28;20590;-79
2022/02/04 21:31:00;;;;;;;4.93;4.03;;;5.10;99.90;;;;;;5056596;28;20261;-79
2022/02/04 21:33:42;;;;;;;6.77;5.20;;;5.00;99.90;;;;;;5059584;28;20875;-79
2022/02/04 21:38:53;;;;;;;6.77;4.77;;;5.10;99.90;;;;;;5064344;28;20201;-79
2022/02/04 21:41:19;;;;;;;9.00;4.67;;;5.10;99.90;;;;;;5064224;28;20170;-79
2022/02/04 21:43:50;;;;;;;6.23;4.77;;;5.10;99.90;;;;;;5061394;28;20173;-79
2022/02/04 21:46:17;;;;;;;6.60;5.67;;;5.30;99.90;;;;;;5057711;28;20536;-79
2022/02/04 21:48:47;;;;;;;7.17;5.13;;;;;;;;;;5058221;28;20201;-78
2022/02/04 21:51:14;;;;;;;6.47;5.40;;;5.20;99.90;;;;;;5059399;28;20404;-79
2022/02/04 21:53:40;;;;;;;6.50;5.03;;;;;;;;;;5061091;28;20609;-79
2022/02/04 21:56:09;;;;;;;6.20;4.53;;;5.10;99.90;;;;;;5060243;28;20280;-79
2022/02/04 21:58:38;;;;;;;5.57;4.57;;;5.20;99.90;;;;;;5060547;28;20194;-79